Time;durP1;ratioP1;P1;durP2;ratioP2;P2;SDS_P1;SDS_P2;PMS_P1;PMS_P2;Temp;Humidity;BMP_temperature;BMP_pressure;BME280_temperature;BME280_humidity;BME280_pressure;Samples;Min_cycle;Max_cycle;Signal;HPM_P1;HPM_P2
2023/02/01 00:00:30;;;;;;;;;;;22.00;54.00;;;;;;1559562;75;1735;-70
2023/02/01 00:02:32;;;;;;;;;;;22.00;54.00;;;;;;1562295;75;732;-69
2023/02/01 00:04:34;;;;;;;;;;;22.00;54.10;;;;;;1559728;75;1121;-69
2023/02/01 00:06:36;;;;;;;;;;;22.00;54.10;;;;;;1560129;75;789;-70
2023/02/01 00:08:37;;;;;;;;;;;22.00;54.10;;;;;;1549065;75;1934;-69
2023/02/01 00:10:39;;;;;;;;;;;21.90;54.20;;;;;;1561407;75;713;-70
2023/02/01 00:12:41;;;;;;;;;;;21.90;54.20;;;;;;1557368;75;746;-70
2023/02/01 00:14:43;;;;;;;;;;;21.90;54.20;;;;;;1561584;75;1769;-69
2023/02/01 00:16:45;;;;;;;;;;;21.90;54.40;;;;;;1555077;75;782;-69
2023/02/01 00:18:47;;;;;;;;;;;21.90;54.40;;;;;;1561237;75;749;-71
2023/02/01 00:20:49;;;;;;;;;;;21.90;54.40;;;;;;1566504;75;784;-69
2023/02/01 00:22:51;;;;;;;;;;;21.90;54.40;;;;;;1561106;75;719;-69
2023/02/01 00:24:53;;;;;;;;;;;21.80;54.40;;;;;;1561193;76;1161;-68
2023/02/01 00:26:55;;;;;;;;;;;21.90;54.60;;;;;;1551165;75;1539;-69
2023/02/01 00:28:57;;;;;;;;;;;21.90;54.50;;;;;;1549600;75;1908;-70
2023/02/01 00:30:59;;;;;;;;;;;21.90;54.80;;;;;;1549401;75;687;-69
2023/02/01 00:33:01;;;;;;;;;;;21.80;54.60;;;;;;1558608;75;1186;-70
2023/02/01 00:35:03;;;;;;;;;;;21.80;54.70;;;;;;1536359;73;2151;-68
2023/02/01 00:37:05;;;;;;;;;;;21.90;54.70;;;;;;1523890;76;712;-69
2023/02/01 00:39:07;;;;;;;;;;;21.80;54.70;;;;;;1517601;76;727;-68
2023/02/01 00:41:13;;;;;;;;;;;21.90;54.80;;;;;;1525940;78;1548;-67
2023/02/01 00:43:15;;;;;;;;;;;21.90;54.70;;;;;;1523910;76;1069;-66
2023/02/01 00:45:17;;;;;;;;;;;21.90;54.70;;;;;;1530620;77;1172;-67
2023/02/01 00:47:19;;;;;;;;;;;21.90;54.70;;;;;;1531712;77;732;-73
2023/02/01 00:49:21;;;;;;;;;;;21.90;54.70;;;;;;1533957;77;1906;-69
2023/02/01 00:51:24;;;;;;;;;;;21.90;54.70;;;;;;1527247;77;742;-68
2023/02/01 00:53:26;;;;;;;;;;;21.90;54.70;;;;;;1504929;79;738;-68
2023/02/01 00:55:28;;;;;;;;;;;21.90;54.70;;;;;;1493875;78;1473;-68
2023/02/01 00:57:30;;;;;;;;;;;21.80;54.60;;;;;;1521420;77;709;-68
2023/02/01 00:59:32;;;;;;;;;;;21.90;54.80;;;;;;1551118;76;763;-68
2023/02/01 01:01:33;;;;;;;;;;;21.80;54.70;;;;;;1554498;76;756;-68
2023/02/01 01:03:37;;;;;;;;;;;21.80;54.70;;;;;;1557586;74;1147;-68
2023/02/01 01:05:38;;;;;;;;;;;21.90;54.90;;;;;;1561240;75;776;-67
2023/02/01 01:07:41;;;;;;;;;;;21.80;54.70;;;;;;1554614;75;730;-67
2023/02/01 01:09:43;;;;;;;;;;;21.90;54.90;;;;;;1555016;76;1908;-68
2023/02/01 01:11:44;;;;;;;;;;;21.80;54.70;;;;;;1545234;76;789;-68
2023/02/01 01:13:50;;;;;;;;;;;21.90;54.80;;;;;;1551118;75;1152;-68
2023/02/01 01:15:52;;;;;;;;;;;21.90;54.90;;;;;;1550092;76;811;-68
2023/02/01 01:17:54;;;;;;;;;;;21.80;54.80;;;;;;1549469;75;759;-68
2023/02/01 01:19:55;;;;;;;;;;;21.80;54.80;;;;;;1543455;76;719;-69
2023/02/01 01:21:57;;;;;;;;;;;21.90;54.90;;;;;;1551752;75;684;-68
2023/02/01 01:23:59;;;;;;;;;;;21.90;54.80;;;;;;1544257;75;1171;-68
2023/02/01 01:26:01;;;;;;;;;;;21.90;54.70;;;;;;1548945;76;723;-70
2023/02/01 01:28:03;;;;;;;;;;;21.90;54.90;;;;;;1541856;76;730;-69
2023/02/01 01:30:05;;;;;;;;;;;21.90;55.00;;;;;;1550381;75;1943;-68
2023/02/01 01:32:07;;;;;;;;;;;21.90;55.10;;;;;;1548263;75;725;-68
2023/02/01 01:34:09;;;;;;;;;;;21.90;55.00;;;;;;1549418;75;1176;-67
2023/02/01 01:36:11;;;;;;;;;;;21.90;55.10;;;;;;1534661;76;763;-67
2023/02/01 01:38:13;;;;;;;;;;;21.90;55.20;;;;;;1534783;76;763;-68
2023/02/01 01:40:15;;;;;;;;;;;21.80;55.00;;;;;;1530356;76;735;-70
2023/02/01 01:42:17;;;;;;;;;;;21.90;55.00;;;;;;1535869;76;798;-69
2023/02/01 01:44:37;;;;;;;;;;;21.90;55.10;;;;;;1535889;76;1166;-70
2023/02/01 01:46:40;;;;;;;;;;;21.80;55.00;;;;;;1531986;76;704;-71
2023/02/01 01:48:42;;;;;;;;;;;21.90;55.00;;;;;;1538741;76;755;-68
2023/02/01 01:50:48;;;;;;;;;;;21.90;55.00;;;;;;1543272;76;1950;-69
2023/02/01 01:52:49;;;;;;;;;;;21.90;55.10;;;;;;1510842;76;1457;-67
2023/02/01 01:54:51;;;;;;;;;;;21.90;55.00;;;;;;1541714;76;1159;-69
2023/02/01 01:56:54;;;;;;;;;;;21.90;55.00;;;;;;1531893;76;660;-68
2023/02/01 01:58:56;;;;;;;;;;;21.80;54.90;;;;;;1532979;76;815;-68
2023/02/01 02:00:58;;;;;;;;;;;21.80;55.00;;;;;;1536467;76;731;-69
2023/02/01 02:03:03;;;;;;;;;;;21.80;55.00;;;;;;1539778;76;758;-70
2023/02/01 02:05:05;;;;;;;;;;;21.80;55.00;;;;;;1538608;76;1134;-69
2023/02/01 02:07:11;;;;;;;;;;;21.80;55.10;;;;;;1534912;77;1529;-69
2023/02/01 02:09:13;;;;;;;;;;;21.80;55.10;;;;;;1541235;77;1908;-68
2023/02/01 02:11:15;;;;;;;;;;;21.80;55.20;;;;;;1535409;76;719;-68
2023/02/01 02:13:17;;;;;;;;;;;21.80;55.30;;;;;;1536023;76;796;-67
2023/02/01 02:15:19;;;;;;;;;;;21.80;55.20;;;;;;1529560;76;1050;-71
2023/02/01 02:17:36;;;;;;;;;;;21.80;55.30;;;;;;1528729;76;720;-69
2023/02/01 02:19:57;;;;;;;;;;;21.70;55.40;;;;;;1533494;76;724;-72
2023/02/01 02:22:17;;;;;;;;;;;21.70;55.30;;;;;;1533374;76;775;-69
2023/02/01 02:24:21;;;;;;;;;;;21.70;55.20;;;;;;1529255;76;1160;-68
2023/02/01 02:26:24;;;;;;;;;;;21.70;55.20;;;;;;1534062;76;1035;-68
2023/02/01 02:28:46;;;;;;;;;;;21.80;55.30;;;;;;1529028;76;1238;-70
2023/02/01 02:31:00;;;;;;;;;;;21.70;55.20;;;;;;1535673;76;1939;-68
2023/02/01 02:33:03;;;;;;;;;;;21.80;55.20;;;;;;1539000;77;680;-68
2023/02/01 02:35:07;;;;;;;;;;;21.80;55.20;;;;;;1518354;76;1163;-70
2023/02/01 02:37:13;;;;;;;;;;;21.70;55.20;;;;;;1538346;76;1092;-67
2023/02/01 02:39:25;;;;;;;;;;;21.80;55.20;;;;;;1545409;76;692;-67
2023/02/01 02:48:40;;;;;;;;;;;21.80;55.10;;;;;;1537696;77;1633;-69
2023/02/01 02:55:40;;;;;;;;;;;21.70;55.20;;;;;;1469853;80;1647;-68
2023/02/01 03:04:42;;;;;;;;;;;21.70;55.20;;;;;;1471756;80;1659;-68
2023/02/01 03:06:45;;;;;;;;;;;21.70;55.20;;;;;;1463659;80;783;-68
2023/02/01 03:08:47;;;;;;;;;;;21.70;55.20;;;;;;1477101;80;646;-72
2023/02/01 03:10:56;;;;;;;;;;;21.80;55.30;;;;;;1470750;80;1924;-68
2023/02/01 03:13:09;;;;;;;;;;;21.70;55.30;;;;;;1469344;80;791;-69
2023/02/01 03:15:12;;;;;;;;;;;21.70;55.30;;;;;;1467939;79;1156;-69
2023/02/01 03:17:15;;;;;;;;;;;21.70;55.30;;;;;;1469249;80;713;-69
2023/02/01 03:19:24;;;;;;;;;;;21.70;55.30;;;;;;1470554;80;825;-69
2023/02/01 03:21:27;;;;;;;;;;;21.70;55.40;;;;;;1468389;80;743;-68
2023/02/01 03:23:30;;;;;;;;;;;21.70;55.50;;;;;;1472774;80;806;-69
2023/02/01 03:25:32;;;;;;;;;;;21.80;55.50;;;;;;1473703;80;793;-68
2023/02/01 03:27:35;;;;;;;;;;;21.80;55.50;;;;;;1467780;80;783;-68
2023/02/01 03:29:39;;;;;;;;;;;21.80;55.50;;;;;;1470791;80;1952;-69
2023/02/01 03:31:41;;;;;;;;;;;21.90;55.50;;;;;;1479373;80;802;-68
2023/02/01 03:33:43;;;;;;;;;;;21.80;55.50;;;;;;1477713;79;1212;-74
2023/02/01 03:35:49;;;;;;;;;;;21.80;55.50;;;;;;1482963;79;814;-69
2023/02/01 03:37:51;;;;;;;;;;;21.80;55.60;;;;;;1508912;77;632;-76
2023/02/01 03:40:00;;;;;;;;;;;21.80;55.70;;;;;;1507349;77;657;-70
2023/02/01 03:42:06;;;;;;;;;;;21.90;55.90;;;;;;1508211;77;723;-68
2023/02/01 03:44:16;;;;;;;;;;;21.90;55.70;;;;;;1504601;77;1262;-71
2023/02/01 03:46:25;;;;;;;;;;;21.90;55.70;;;;;;1490568;78;974;-70
2023/02/01 03:48:27;;;;;;;;;;;21.90;55.60;;;;;;1520355;76;688;-70
2023/02/01 03:50:29;;;;;;;;;;;21.90;55.60;;;;;;1490218;78;1928;-69
2023/02/01 03:52:34;;;;;;;;;;;21.90;55.60;;;;;;1493986;77;693;-70
2023/02/01 03:54:36;;;;;;;;;;;21.90;55.60;;;;;;1501534;77;1156;-74
2023/02/01 03:56:38;;;;;;;;;;;21.90;55.50;;;;;;1500918;78;727;-68
2023/02/01 03:58:40;;;;;;;;;;;21.90;55.40;;;;;;1496557;77;1441;-70
2023/02/01 04:00:43;;;;;;;;;;;21.90;55.40;;;;;;1502668;77;861;-70
2023/02/01 04:02:45;;;;;;;;;;;22.00;55.30;;;;;;1502292;77;749;-69
2023/02/01 04:04:47;;;;;;;;;;;22.00;55.30;;;;;;1517955;77;1139;-69
2023/02/01 04:06:49;;;;;;;;;;;21.90;55.30;;;;;;1513628;76;776;-69
2023/02/01 04:08:51;;;;;;;;;;;22.00;55.30;;;;;;1490371;78;719;-68
2023/02/01 04:10:53;;;;;;;;;;;22.00;55.30;;;;;;1498238;77;1930;-68
2023/02/01 04:12:55;;;;;;;;;;;22.00;55.30;;;;;;1494189;77;738;-69
2023/02/01 04:14:57;;;;;;;;;;;21.90;55.20;;;;;;1513450;76;1136;-70
2023/02/01 04:16:59;;;;;;;;;;;21.90;55.30;;;;;;1498279;77;785;-69
2023/02/01 04:19:01;;;;;;;;;;;22.00;55.20;;;;;;1516581;76;714;-68
2023/02/01 04:21:03;;;;;;;;;;;22.00;55.10;;;;;;1503876;78;736;-70
2023/02/01 04:23:05;;;;;;;;;;;22.00;55.10;;;;;;1501367;78;724;-68
2023/02/01 04:25:07;;;;;;;;;;;22.10;55.00;;;;;;1520794;77;1141;-68
2023/02/01 04:27:09;;;;;;;;;;;22.10;55.00;;;;;;1517182;77;708;-72
2023/02/01 04:29:11;;;;;;;;;;;22.10;55.10;;;;;;1518633;78;753;-70
2023/02/01 04:31:13;;;;;;;;;;;22.00;55.00;;;;;;1517926;77;1940;-68
2023/02/01 04:33:15;;;;;;;;;;;22.10;55.00;;;;;;1520041;77;715;-68
2023/02/01 04:35:17;;;;;;;;;;;22.10;55.20;;;;;;1518938;77;1163;-69
2023/02/01 04:37:19;;;;;;;;;;;22.10;55.20;;;;;;1510736;77;790;-69
2023/02/01 04:39:21;;;;;;;;;;;22.10;55.10;;;;;;1513621;78;780;-69
2023/02/01 04:41:23;;;;;;;;;;;22.00;55.10;;;;;;1506905;77;682;-70
2023/02/01 04:43:25;;;;;;;;;;;22.10;55.10;;;;;;1502967;77;678;-67
2023/02/01 04:45:26;;;;;;;;;;;22.10;55.20;;;;;;1501100;78;1144;-67
2023/02/01 04:47:28;;;;;;;;;;;22.10;55.10;;;;;;1507160;78;702;-68
2023/02/01 04:49:30;;;;;;;;;;;22.10;55.20;;;;;;1502444;78;797;-68
2023/02/01 04:51:32;;;;;;;;;;;22.10;55.20;;;;;;1499403;77;2150;-68
2023/02/01 04:53:34;;;;;;;;;;;22.10;55.20;;;;;;1503694;77;1144;-69
2023/02/01 04:55:36;;;;;;;;;;;22.10;55.10;;;;;;1509526;77;1526;-71
2023/02/01 04:57:40;;;;;;;;;;;22.10;55.20;;;;;;1513881;77;778;-69
2023/02/01 04:59:41;;;;;;;;;;;22.10;55.20;;;;;;1512977;77;1016;-68
2023/02/01 05:01:43;;;;;;;;;;;22.00;55.10;;;;;;1506056;78;726;-68
2023/02/01 05:03:45;;;;;;;;;;;22.00;55.20;;;;;;1500886;77;1154;-68
2023/02/01 05:05:53;;;;;;;;;;;22.00;55.10;;;;;;1519893;77;722;-69
2023/02/01 05:07:54;;;;;;;;;;;22.00;55.20;;;;;;1517770;77;964;-70
2023/02/01 05:09:55;;;;;;;;;;;22.00;55.20;;;;;;1522557;77;635;-69
2023/02/01 05:14:17;;;;;;;;;;;22.00;55.20;;;;;;1516860;77;1682;-68
2023/02/01 05:16:19;;;;;;;;;;;22.00;55.20;;;;;;1533901;76;695;-69
2023/02/01 05:18:21;;;;;;;;;;;22.00;55.10;;;;;;1517640;77;780;-69
2023/02/01 05:20:22;;;;;;;;;;;22.00;55.10;;;;;;1522122;77;715;-68
2023/02/01 05:22:24;;;;;;;;;;;22.00;55.10;;;;;;1530519;77;589;-69
2023/02/01 05:24:26;;;;;;;;;;;22.10;55.20;;;;;;1530458;77;1128;-70
2023/02/01 05:26:28;;;;;;;;;;;22.00;55.20;;;;;;1481872;79;729;-71
2023/02/01 05:28:30;;;;;;;;;;;22.10;55.20;;;;;;1481569;78;767;-69
2023/02/01 05:30:34;;;;;;;;;;;22.00;55.30;;;;;;1497362;78;1934;-70
2023/02/01 05:32:36;;;;;;;;;;;22.00;55.30;;;;;;1503860;79;1125;-69
2023/02/01 05:34:38;;;;;;;;;;;22.00;55.40;;;;;;1499459;78;1150;-70
2023/02/01 05:36:40;;;;;;;;;;;22.00;55.40;;;;;;1479289;78;779;-70
2023/02/01 05:38:41;;;;;;;;;;;22.00;55.40;;;;;;1525239;77;706;-71
2023/02/01 05:40:49;;;;;;;;;;;22.00;55.50;;;;;;1526729;77;727;-70
2023/02/01 05:42:47;;;;;;;;;;;22.00;55.60;;;;;;1523385;77;1118;-68
2023/02/01 05:44:49;;;;;;;;;;;22.00;55.50;;;;;;1531833;76;1136;-70
2023/02/01 05:46:52;;;;;;;;;;;22.00;55.40;;;;;;1519909;77;794;-70
2023/02/01 05:48:54;;;;;;;;;;;22.10;55.40;;;;;;1504670;77;617;-67
2023/02/01 05:50:55;;;;;;;;;;;22.10;55.40;;;;;;1514706;77;1944;-67
2023/02/01 05:52:57;;;;;;;;;;;22.10;55.50;;;;;;1517929;77;720;-68
2023/02/01 05:54:59;;;;;;;;;;;22.10;55.50;;;;;;1520772;77;1144;-70
2023/02/01 05:57:01;;;;;;;;;;;22.10;55.50;;;;;;1520631;77;651;-69
2023/02/01 05:59:03;;;;;;;;;;;22.00;55.60;;;;;;1522280;77;790;-68
2023/02/01 06:01:05;;;;;;;;;;;22.00;55.80;;;;;;1520897;77;740;-67
2023/02/01 06:03:07;;;;;;;;;;;22.00;55.80;;;;;;1519770;77;764;-68
2023/02/01 06:05:09;;;;;;;;;;;22.00;55.70;;;;;;1516026;77;1162;-68
2023/02/01 06:07:11;;;;;;;;;;;22.10;55.60;;;;;;1520016;77;804;-67
2023/02/01 06:09:13;;;;;;;;;;;22.10;55.60;;;;;;1520508;77;678;-73
2023/02/01 06:11:15;;;;;;;;;;;22.10;55.70;;;;;;1527245;77;1929;-71
2023/02/01 06:13:16;;;;;;;;;;;22.20;55.30;;;;;;1524915;76;1015;-69
2023/02/01 06:15:18;;;;;;;;;;;22.20;55.20;;;;;;1525452;74;1115;-71
2023/02/01 06:17:20;;;;;;;;;;;22.20;55.00;;;;;;1521768;77;672;-68
2023/02/01 06:19:22;;;;;;;;;;;22.20;54.90;;;;;;1526619;77;751;-70
2023/02/01 06:21:24;;;;;;;;;;;22.20;54.90;;;;;;1526089;77;714;-71
2023/02/01 06:23:26;;;;;;;;;;;22.10;54.90;;;;;;1520690;76;795;-69
2023/02/01 06:25:28;;;;;;;;;;;22.10;54.80;;;;;;1539788;77;1141;-68
2023/02/01 06:27:30;;;;;;;;;;;22.10;54.80;;;;;;1481531;79;571;-69
2023/02/01 06:29:32;;;;;;;;;;;22.10;54.70;;;;;;1505576;78;776;-70
2023/02/01 06:31:34;;;;;;;;;;;22.00;54.70;;;;;;1507476;77;1941;-66
2023/02/01 06:33:36;;;;;;;;;;;22.10;53.60;;;;;;1502952;77;1118;-71
2023/02/01 06:35:38;;;;;;;;;;;22.10;52.90;;;;;;1501497;77;740;-67
2023/02/01 06:37:40;;;;;;;;;;;22.20;52.80;;;;;;1517253;77;820;-66
2023/02/01 06:39:41;;;;;;;;;;;22.10;48.60;;;;;;1524549;77;727;-66
2023/02/01 06:41:45;;;;;;;;;;;22.00;51.60;;;;;;1528941;77;824;-66
2023/02/01 06:43:47;;;;;;;;;;;22.00;50.70;;;;;;1492042;78;1204;-67
2023/02/01 06:45:49;;;;;;;;;;;22.00;50.50;;;;;;1495625;79;606;-69
2023/02/01 06:47:51;;;;;;;;;;;21.90;50.50;;;;;;1493410;78;1517;-67
2023/02/01 06:49:52;;;;;;;;;;;21.90;50.40;;;;;;1475332;79;872;-70
2023/02/01 06:51:54;;;;;;;;;;;21.70;49.20;;;;;;1484920;78;1927;-70
2023/02/01 06:53:56;;;;;;;;;;;21.70;49.70;;;;;;1499322;77;1127;-72
2023/02/01 06:55:59;;;;;;;;;;;21.70;49.60;;;;;;1499951;77;561;-72
2023/02/01 06:58:02;;;;;;;;;;;21.70;49.20;;;;;;1501712;77;729;-70
2023/02/01 07:00:04;;;;;;;;;;;21.60;48.90;;;;;;1511054;77;725;-70
2023/02/01 07:02:06;;;;;;;;;;;21.70;48.60;;;;;;1503599;78;707;-71
2023/02/01 07:04:09;;;;;;;;;;;21.60;48.50;;;;;;1498413;77;1156;-70
2023/02/01 07:06:11;;;;;;;;;;;21.60;48.20;;;;;;1549703;76;693;-71
2023/02/01 07:08:13;;;;;;;;;;;21.50;48.40;;;;;;1545955;75;719;-72
2023/02/01 07:10:15;;;;;;;;;;;21.40;48.10;;;;;;1542284;76;707;-71
2023/02/01 07:12:17;;;;;;;;;;;21.50;48.10;;;;;;1549128;75;1940;-70
2023/02/01 07:14:18;;;;;;;;;;;21.50;48.10;;;;;;1535297;76;1137;-71
2023/02/01 07:16:20;;;;;;;;;;;21.40;48.30;;;;;;1545643;76;786;-74
2023/02/01 07:18:22;;;;;;;;;;;21.30;48.60;;;;;;1544506;75;744;-75
2023/02/01 07:20:24;;;;;;;;;;;21.30;48.90;;;;;;1554898;75;673;-78
2023/02/01 07:22:26;;;;;;;;;;;21.30;49.20;;;;;;1545167;75;861;-77
2023/02/01 07:24:28;;;;;;;;;;;21.20;49.30;;;;;;1539556;76;1176;-71
2023/02/01 07:26:31;;;;;;;;;;;21.20;49.40;;;;;;1542360;76;740;-70
2023/02/01 07:28:33;;;;;;;;;;;21.10;49.70;;;;;;1543486;76;751;-70
2023/02/01 07:30:35;;;;;;;;;;;21.20;49.80;;;;;;1548819;76;728;-71
2023/02/01 07:32:37;;;;;;;;;;;21.10;50.00;;;;;;1537340;76;1926;-72
2023/02/01 07:34:39;;;;;;;;;;;21.20;50.20;;;;;;1538305;75;1148;-65
2023/02/01 07:36:41;;;;;;;;;;;21.10;50.20;;;;;;1540332;76;657;-68
2023/02/01 07:38:43;;;;;;;;;;;21.10;50.30;;;;;;1540802;76;827;-71
2023/02/01 07:40:45;;;;;;;;;;;21.20;50.40;;;;;;1546003;76;786;-68
2023/02/01 07:42:48;;;;;;;;;;;21.10;50.50;;;;;;1536441;75;1493;-67
2023/02/01 07:44:50;;;;;;;;;;;21.20;50.50;;;;;;1531092;76;1212;-70
2023/02/01 07:46:52;;;;;;;;;;;21.10;50.60;;;;;;1542536;76;614;-70
2023/02/01 07:48:54;;;;;;;;;;;21.20;50.70;;;;;;1539080;76;721;-72
2023/02/01 07:51:00;;;;;;;;;;;21.20;50.70;;;;;;1539923;75;631;-68
2023/02/01 07:53:02;;;;;;;;;;;21.20;50.70;;;;;;1539546;76;728;-71
2023/02/01 07:55:05;;;;;;;;;;;21.20;50.70;;;;;;1542775;75;1098;-68
2023/02/01 07:57:08;;;;;;;;;;;21.20;50.80;;;;;;1546449;75;689;-71
2023/02/01 07:59:11;;;;;;;;;;;21.20;50.90;;;;;;1542922;76;862;-68
2023/02/01 08:01:20;;;;;;;;;;;21.20;50.90;;;;;;1543270;76;783;-69
2023/02/01 08:03:22;;;;;;;;;;;21.20;51.00;;;;;;1539672;76;661;-72
2023/02/01 08:05:24;;;;;;;;;;;21.20;50.90;;;;;;1541857;76;1086;-70
2023/02/01 08:07:26;;;;;;;;;;;21.30;51.20;;;;;;1545731;76;711;-71
2023/02/01 08:09:27;;;;;;;;;;;21.20;51.10;;;;;;1546100;76;839;-68
2023/02/01 08:11:29;;;;;;;;;;;21.20;51.10;;;;;;1543502;76;1898;-68
2023/02/01 08:13:31;;;;;;;;;;;21.20;51.10;;;;;;1546757;76;1244;-71
2023/02/01 08:15:33;;;;;;;;;;;21.20;51.10;;;;;;1547854;76;706;-74
2023/02/01 08:17:35;;;;;;;;;;;21.20;51.10;;;;;;1545501;76;729;-69
2023/02/01 08:19:37;;;;;;;;;;;21.20;51.20;;;;;;1540305;76;742;-70
2023/02/01 08:21:39;;;;;;;;;;;21.30;51.30;;;;;;1547905;76;773;-68
2023/02/01 08:23:41;;;;;;;;;;;21.30;51.30;;;;;;1544411;75;1256;-75
2023/02/01 08:25:43;;;;;;;;;;;21.30;51.30;;;;;;1546408;76;734;-67
2023/02/01 08:27:44;;;;;;;;;;;21.20;51.20;;;;;;1542247;76;704;-68
2023/02/01 08:29:46;;;;;;;;;;;21.20;51.20;;;;;;1545805;76;822;-67
2023/02/01 08:31:48;;;;;;;;;;;21.20;51.10;;;;;;1545874;76;1928;-68
2023/02/01 08:33:52;;;;;;;;;;;21.30;51.30;;;;;;1543419;76;1273;-67
2023/02/01 08:35:53;;;;;;;;;;;21.30;51.30;;;;;;1541427;76;728;-67
2023/02/01 08:37:55;;;;;;;;;;;21.30;51.30;;;;;;1541959;75;724;-68
2023/02/01 08:39:57;;;;;;;;;;;21.30;51.30;;;;;;1538798;75;1481;-68
2023/02/01 08:44:19;;;;;;;;;;;21.30;51.30;;;;;;1538116;76;1653;-72
2023/02/01 08:46:21;;;;;;;;;;;21.30;51.40;;;;;;1546336;75;758;-73
2023/02/01 08:48:22;;;;;;;;;;;21.30;51.50;;;;;;1545887;74;794;-73
2023/02/01 08:50:24;;;;;;;;;;;21.30;51.50;;;;;;1545765;74;989;-66
2023/02/01 08:52:26;;;;;;;;;;;21.30;51.50;;;;;;1547886;75;1923;-66
2023/02/01 08:54:28;;;;;;;;;;;21.30;51.50;;;;;;1544895;75;1141;-66
2023/02/01 08:56:30;;;;;;;;;;;21.30;51.50;;;;;;1536571;76;779;-67
2023/02/01 08:58:32;;;;;;;;;;;21.30;51.40;;;;;;1537987;76;618;-68
2023/02/01 09:00:34;;;;;;;;;;;21.30;51.40;;;;;;1544282;76;725;-71
2023/02/01 09:02:36;;;;;;;;;;;21.30;51.50;;;;;;1533990;76;782;-66
2023/02/01 09:04:38;;;;;;;;;;;21.30;51.40;;;;;;1542500;76;1119;-65
2023/02/01 09:06:41;;;;;;;;;;;21.30;51.50;;;;;;1544273;75;798;-67
2023/02/01 09:08:43;;;;;;;;;;;21.30;51.40;;;;;;1553657;75;719;-68
2023/02/01 09:10:45;;;;;;;;;;;21.30;51.40;;;;;;1545168;75;823;-70
2023/02/01 09:12:46;;;;;;;;;;;21.30;51.40;;;;;;1541866;75;1943;-69
2023/02/01 09:14:48;;;;;;;;;;;21.30;51.40;;;;;;1537801;76;1133;-66
2023/02/01 09:16:50;;;;;;;;;;;21.40;51.40;;;;;;1541247;76;792;-67
2023/02/01 09:18:52;;;;;;;;;;;21.40;51.30;;;;;;1539482;76;756;-66
2023/02/01 09:20:54;;;;;;;;;;;21.40;51.30;;;;;;1537793;76;631;-68
2023/02/01 09:22:56;;;;;;;;;;;21.40;51.30;;;;;;1538656;76;804;-69
2023/02/01 09:24:58;;;;;;;;;;;21.40;51.30;;;;;;1547123;76;1142;-67
2023/02/01 09:27:00;;;;;;;;;;;21.30;51.30;;;;;;1538971;75;735;-68
2023/02/01 09:29:01;;;;;;;;;;;21.30;51.30;;;;;;1537964;76;730;-67
2023/02/01 09:31:03;;;;;;;;;;;21.40;51.30;;;;;;1544522;76;766;-69
2023/02/01 09:33:05;;;;;;;;;;;21.30;51.30;;;;;;1553206;76;1945;-66
2023/02/01 09:35:07;;;;;;;;;;;21.40;51.30;;;;;;1541194;76;1139;-67
2023/02/01 09:37:09;;;;;;;;;;;21.40;51.30;;;;;;1536483;75;1396;-69
2023/02/01 09:39:11;;;;;;;;;;;21.40;51.20;;;;;;1539685;76;827;-66
2023/02/01 09:41:26;;;;;;;;;;;21.30;51.30;;;;;;1538409;76;604;-68
2023/02/01 09:43:42;;;;;;;;;;;21.40;51.30;;;;;;1544596;76;683;-66
2023/02/01 09:45:46;;;;;;;;;;;21.40;51.30;;;;;;1542197;76;746;-68
2023/02/01 09:47:52;;;;;;;;;;;21.40;51.30;;;;;;1547536;76;1789;-69
2023/02/01 09:49:55;;;;;;;;;;;21.30;51.30;;;;;;1509563;77;821;-67
2023/02/01 09:51:57;;;;;;;;;;;21.30;51.30;;;;;;1545959;76;1920;-70
2023/02/01 09:54:00;;;;;;;;;;;21.30;51.30;;;;;;1542438;76;1170;-68
2023/02/01 09:56:06;;;;;;;;;;;21.30;51.30;;;;;;1532251;76;644;-67
2023/02/01 09:58:10;;;;;;;;;;;21.40;51.30;;;;;;1538278;76;691;-67
2023/02/01 10:00:16;;;;;;;;;;;21.30;51.30;;;;;;1538060;76;771;-68
2023/02/01 10:02:20;;;;;;;;;;;21.30;51.30;;;;;;1537801;76;677;-67
2023/02/01 10:04:22;;;;;;;;;;;21.30;51.20;;;;;;1535946;75;1378;-67
2023/02/01 10:06:32;;;;;;;;;;;21.30;51.20;;;;;;1540975;76;795;-67
2023/02/01 10:08:35;;;;;;;;;;;21.30;51.20;;;;;;1539936;76;669;-68
2023/02/01 10:10:48;;;;;;;;;;;21.30;51.30;;;;;;1541955;75;1834;-65
2023/02/01 10:12:51;;;;;;;;;;;21.30;51.30;;;;;;1541280;76;1903;-68
2023/02/01 10:14:55;;;;;;;;;;;21.30;51.30;;;;;;1525052;76;1166;-69
2023/02/01 10:17:10;;;;;;;;;;;21.30;51.30;;;;;;1542576;76;1766;-67
2023/02/01 10:19:30;;;;;;;;;;;21.20;51.10;;;;;;1537618;75;769;-69
2023/02/01 10:21:39;;;;;;;;;;;21.30;51.30;;;;;;1546377;75;733;-69
2023/02/01 10:23:50;;;;;;;;;;;21.30;51.30;;;;;;1537148;75;1154;-69
2023/02/01 10:25:56;;;;;;;;;;;21.20;51.10;;;;;;1543849;76;1108;-69
2023/02/01 10:27:58;;;;;;;;;;;21.30;51.30;;;;;;1536124;76;712;-69
2023/02/01 10:30:00;;;;;;;;;;;21.30;51.30;;;;;;1535680;76;645;-69
2023/02/01 10:32:02;;;;;;;;;;;21.30;51.30;;;;;;1535724;76;1944;-69
2023/02/01 10:34:06;;;;;;;;;;;21.20;51.20;;;;;;1540975;76;1136;-70
2023/02/01 10:36:16;;;;;;;;;;;21.20;51.30;;;;;;1543913;76;1135;-70
2023/02/01 10:38:23;;;;;;;;;;;21.30;51.30;;;;;;1544108;76;750;-69
2023/02/01 10:40:25;;;;;;;;;;;21.30;51.30;;;;;;1536645;76;1555;-69
2023/02/01 10:42:28;;;;;;;;;;;21.20;51.10;;;;;;1540532;76;749;-68
2023/02/01 10:44:30;;;;;;;;;;;21.20;51.10;;;;;;1540146;76;1225;-69
2023/02/01 10:46:32;;;;;;;;;;;21.20;51.10;;;;;;1548187;76;790;-69
2023/02/01 10:48:34;;;;;;;;;;;21.30;51.30;;;;;;1553084;76;729;-69
2023/02/01 10:50:40;;;;;;;;;;;21.30;51.30;;;;;;1551712;75;761;-69
2023/02/01 10:52:48;;;;;;;;;;;21.20;51.10;;;;;;1541282;76;1935;-70
2023/02/01 10:54:50;;;;;;;;;;;21.20;51.20;;;;;;1544150;76;1157;-68
2023/02/01 10:56:53;;;;;;;;;;;21.10;51.20;;;;;;1541367;76;726;-69
2023/02/01 10:59:01;;;;;;;;;;;21.20;51.20;;;;;;1541262;76;740;-70
2023/02/01 11:01:08;;;;;;;;;;;21.20;51.30;;;;;;1554680;76;998;-70
2023/02/01 11:03:22;;;;;;;;;;;21.20;51.30;;;;;;1538781;76;1717;-69
2023/02/01 11:05:25;;;;;;;;;;;21.20;51.30;;;;;;1544593;75;1119;-69
2023/02/01 11:07:27;;;;;;;;;;;21.20;51.40;;;;;;1539196;75;641;-69
2023/02/01 11:09:29;;;;;;;;;;;21.20;51.50;;;;;;1552184;76;802;-70
2023/02/01 11:11:31;;;;;;;;;;;21.20;51.50;;;;;;1546103;76;811;-70
2023/02/01 11:13:35;;;;;;;;;;;21.30;51.70;;;;;;1541643;76;1928;-70
2023/02/01 11:15:36;;;;;;;;;;;21.20;51.60;;;;;;1541486;76;1142;-69
2023/02/01 11:17:40;;;;;;;;;;;21.20;51.70;;;;;;1542148;75;747;-69
2023/02/01 11:19:46;;;;;;;;;;;21.20;51.80;;;;;;1546740;76;1027;-70
2023/02/01 11:21:54;;;;;;;;;;;21.20;51.70;;;;;;1551855;76;747;-70
2023/02/01 11:23:56;;;;;;;;;;;21.20;51.80;;;;;;1540482;76;1148;-69
2023/02/01 11:25:58;;;;;;;;;;;21.20;51.80;;;;;;1537702;75;1253;-69
2023/02/01 11:28:00;;;;;;;;;;;21.30;52.10;;;;;;1506969;78;1317;-69
2023/02/01 11:30:04;;;;;;;;;;;21.20;51.90;;;;;;1480346;78;724;-70
2023/02/01 11:32:06;;;;;;;;;;;21.20;51.90;;;;;;1529204;76;624;-69
2023/02/01 11:34:18;;;;;;;;;;;21.20;51.80;;;;;;1538373;76;1930;-69
2023/02/01 11:36:22;;;;;;;;;;;21.20;51.80;;;;;;1534504;76;976;-69
2023/02/01 11:38:25;;;;;;;;;;;21.20;51.80;;;;;;1538417;76;712;-75
2023/02/01 11:40:28;;;;;;;;;;;21.20;51.90;;;;;;1543362;75;995;-72
2023/02/01 11:42:30;;;;;;;;;;;21.40;52.00;;;;;;1541044;76;617;-74
2023/02/01 11:44:33;;;;;;;;;;;21.20;51.90;;;;;;1540999;75;1188;-70
2023/02/01 11:46:37;;;;;;;;;;;21.20;52.00;;;;;;1540420;74;689;-70
2023/02/01 11:48:39;;;;;;;;;;;21.20;52.10;;;;;;1545426;76;2019;-69
2023/02/01 11:50:42;;;;;;;;;;;21.20;52.10;;;;;;1540019;74;697;-73
2023/02/01 11:52:57;;;;;;;;;;;21.20;52.00;;;;;;1535448;75;1933;-71
2023/02/01 11:55:01;;;;;;;;;;;21.20;52.00;;;;;;1543504;75;1134;-71
2023/02/01 11:57:07;;;;;;;;;;;21.30;52.20;;;;;;1530869;76;1177;-72
2023/02/01 11:59:27;;;;;;;;;;;21.20;52.10;;;;;;1542961;76;1559;-73
2023/02/01 12:01:30;;;;;;;;;;;21.30;52.20;;;;;;1532304;76;805;-73
2023/02/01 12:03:43;;;;;;;;;;;21.20;52.10;;;;;;1538209;75;1158;-72
2023/02/01 12:05:50;;;;;;;;;;;21.30;52.20;;;;;;1536862;76;1720;-71
2023/02/01 12:07:56;;;;;;;;;;;21.30;52.30;;;;;;1537698;74;1806;-71
2023/02/01 12:10:05;;;;;;;;;;;21.20;52.10;;;;;;1534979;76;899;-68
2023/02/01 12:12:09;;;;;;;;;;;21.30;52.30;;;;;;1532879;76;808;-69
2023/02/01 12:14:28;;;;;;;;;;;21.20;52.10;;;;;;1530621;75;1925;-67
2023/02/01 12:16:31;;;;;;;;;;;21.20;52.20;;;;;;1532422;74;790;-70
2023/02/01 12:18:51;;;;;;;;;;;21.20;52.10;;;;;;1530102;74;1019;-72
2023/02/01 12:21:01;;;;;;;;;;;21.20;52.10;;;;;;1531184;76;1002;-72
2023/02/01 12:23:21;;;;;;;;;;;21.30;52.20;;;;;;1526404;76;915;-74
2023/02/01 12:25:28;;;;;;;;;;;21.30;52.20;;;;;;1535279;74;1624;-72
2023/02/01 12:27:37;;;;;;;;;;;21.20;52.10;;;;;;1536279;76;997;-67
2023/02/01 12:29:55;;;;;;;;;;;21.30;52.20;;;;;;1533621;74;734;-71
2023/02/01 12:31:59;;;;;;;;;;;21.20;52.00;;;;;;1533400;76;721;-67
2023/02/01 12:34:20;;;;;;;;;;;21.30;52.10;;;;;;1538097;76;1918;-76
2023/02/01 12:36:40;;;;;;;;;;;21.20;52.10;;;;;;1596210;72;713;-67
2023/02/01 12:38:43;;;;;;;;;;;21.30;52.10;;;;;;1597626;73;756;-68
2023/02/01 12:40:50;;;;;;;;;;;21.20;51.90;;;;;;1597083;73;714;-68